createdAt,value
2018-02-19T00:01:18.821Z,39.70
2018-02-19T00:03:46.301Z,45.80
2018-02-19T00:06:13.754Z,49.33
2018-02-19T00:08:41.215Z,51.70
2018-02-19T00:11:08.683Z,46.10
2018-02-19T00:13:36.150Z,48.53
2018-02-19T00:16:04.429Z,44.80
2018-02-19T00:18:31.932Z,43.20
2018-02-19T00:20:59.393Z,49.90
2018-02-19T00:23:26.855Z,56.70
2018-02-19T00:25:54.455Z,43.40
2018-02-19T00:28:21.930Z,45.53
2018-02-19T00:30:50.147Z,41.73
2018-02-19T00:33:17.602Z,41.37
2018-02-19T00:35:45.076Z,42.20
2018-02-19T00:38:12.539Z,39.93
2018-02-19T00:40:40.033Z,37.90
2018-02-19T00:43:08.478Z,46.47
2018-02-19T00:45:35.970Z,40.93
2018-02-19T00:48:03.466Z,39.43
2018-02-19T00:50:30.899Z,45.23
2018-02-19T00:52:59.132Z,46.37
2018-02-19T00:55:26.591Z,40.50
2018-02-19T00:57:54.089Z,54.20
2018-02-19T01:00:22.385Z,48.00
2018-02-19T01:02:49.894Z,47.57
2018-02-19T01:05:17.354Z,47.27
2018-02-19T01:07:44.855Z,46.27
2018-02-19T01:10:13.096Z,42.40
2018-02-19T01:12:40.555Z,39.60
2018-02-19T01:15:08.011Z,45.20
2018-02-19T01:17:35.470Z,47.90
2018-02-19T01:20:03.103Z,42.17
2018-02-19T01:22:30.579Z,48.47
2018-02-19T01:24:58.043Z,49.80
2018-02-19T01:27:25.528Z,51.13
2018-02-19T01:29:53.086Z,46.20
2018-02-19T01:32:21.328Z,47.10
2018-02-19T01:34:48.790Z,53.13
2018-02-19T01:37:16.276Z,46.90
2018-02-19T01:39:44.544Z,50.37
2018-02-19T01:42:12.064Z,52.43
2018-02-19T01:44:39.524Z,42.23
2018-02-19T01:47:06.995Z,49.07
2018-02-19T01:49:34.455Z,53.87
2018-02-19T01:52:01.922Z,53.77
2018-02-19T01:54:29.398Z,50.23
2018-02-19T01:56:56.879Z,54.80
2018-02-19T01:59:25.105Z,51.60
2018-02-19T02:01:52.563Z,58.00
2018-02-19T02:04:20.025Z,61.63
2018-02-19T02:06:47.533Z,53.70
2018-02-19T02:09:15.751Z,58.73
2018-02-19T02:11:43.232Z,57.53
2018-02-19T02:14:10.761Z,57.50
2018-02-19T02:16:38.239Z,50.37
2018-02-19T02:19:05.731Z,51.83
2018-02-19T02:21:34.054Z,48.10
2018-02-19T02:24:01.542Z,56.37
2018-02-19T02:26:29.021Z,49.27
2018-02-19T02:28:56.476Z,56.50
2018-02-19T02:31:23.941Z,57.53
2018-02-19T02:33:52.174Z,52.77
2018-02-19T02:36:19.647Z,54.17
2018-02-19T02:38:47.091Z,58.23
2018-02-19T02:41:14.592Z,54.57
2018-02-19T02:43:42.818Z,54.30
2018-02-19T02:46:10.293Z,56.87
2018-02-19T02:48:37.792Z,59.83
2018-02-19T02:51:06.015Z,55.97
2018-02-19T02:53:33.481Z,57.73
2018-02-19T02:56:00.941Z,57.17
2018-02-19T02:58:28.428Z,56.23
2018-02-19T03:00:55.911Z,54.63
2018-02-19T03:03:24.140Z,52.90
2018-02-19T03:05:51.620Z,57.67
2018-02-19T03:08:19.096Z,60.17
2018-02-19T03:10:47.318Z,56.03
2018-02-19T03:13:14.787Z,65.93
2018-02-19T03:15:42.279Z,60.73
2018-02-19T03:18:10.494Z,54.83
2018-02-19T03:20:38.086Z,56.30
2018-02-19T03:23:05.566Z,52.90
2018-02-19T03:25:33.031Z,63.10
2018-02-19T03:28:01.282Z,52.33
2018-02-19T03:30:28.785Z,63.33
2018-02-19T03:32:56.295Z,60.83
2018-02-19T03:35:23.771Z,55.33
2018-02-19T03:37:51.251Z,54.93
2018-02-19T03:40:19.541Z,62.27
2018-02-19T03:42:47.782Z,63.90
2018-02-19T03:45:15.259Z,56.43
2018-02-19T03:47:43.473Z,61.73
2018-02-19T03:50:10.996Z,56.20
2018-02-19T03:52:39.210Z,60.07
2018-02-19T03:55:06.678Z,56.13
2018-02-19T03:57:34.170Z,53.53
2018-02-19T04:00:01.643Z,56.47
2018-02-19T04:02:29.859Z,57.93
2018-02-19T04:04:57.371Z,59.07
2018-02-19T04:07:24.823Z,56.67
2018-02-19T04:09:53.050Z,56.83
2018-02-19T04:12:20.507Z,63.30
2018-02-19T04:14:48.355Z,58.17
2018-02-19T04:17:16.602Z,54.97
2018-02-19T04:19:44.083Z,58.43
2018-02-19T04:22:12.367Z,53.60
2018-02-19T04:24:40.634Z,57.07
2018-02-19T04:27:08.899Z,60.67
2018-02-19T04:29:36.368Z,58.13
2018-02-19T04:32:04.620Z,50.87
2018-02-19T04:34:32.136Z,62.90
2018-02-19T04:36:59.679Z,60.70
2018-02-19T04:39:27.912Z,53.73
2018-02-19T04:41:55.380Z,58.63
2018-02-19T04:44:23.743Z,57.10
2018-02-19T04:46:51.231Z,59.73
2018-02-19T04:49:19.510Z,52.33
2018-02-19T04:51:47.021Z,54.83
2018-02-19T04:54:14.511Z,56.43
2018-02-19T04:56:41.970Z,55.83
2018-02-19T04:59:10.316Z,52.77
2018-02-19T05:01:37.815Z,55.37
2018-02-19T05:04:05.256Z,58.00
2018-02-19T05:06:32.731Z,50.93
2018-02-19T05:09:00.293Z,51.80
2018-02-19T05:11:28.006Z,48.97
2018-02-19T05:13:55.482Z,47.40
2018-02-19T05:16:22.966Z,47.20
2018-02-19T05:18:50.432Z,48.23
2018-02-19T05:21:17.885Z,46.40
2018-02-19T05:23:45.344Z,47.70
2018-02-19T05:26:12.800Z,46.50
2018-02-19T05:28:40.256Z,46.90
2018-02-19T05:31:07.721Z,48.13
2018-02-19T05:33:35.209Z,56.93
2018-02-19T05:36:02.661Z,46.37
2018-02-19T05:38:30.896Z,47.77
2018-02-19T05:40:58.367Z,49.17
2018-02-19T05:43:25.847Z,45.63
2018-02-19T05:45:54.089Z,47.07
2018-02-19T05:48:21.559Z,52.17
2018-02-19T05:50:49.053Z,50.97
2018-02-19T05:53:16.552Z,42.47
2018-02-19T05:55:44.022Z,50.03
2018-02-19T05:58:11.676Z,50.10
2018-02-19T06:00:39.109Z,50.50
2018-02-19T06:03:06.589Z,44.60
2018-02-19T06:05:34.080Z,46.97
2018-02-19T06:08:01.558Z,41.70
2018-02-19T06:10:29.808Z,43.03
2018-02-19T06:12:57.279Z,49.00
2018-02-19T06:15:25.559Z,47.10
2018-02-19T06:17:53.855Z,45.67
2018-02-19T06:20:22.099Z,51.93
2018-02-19T06:22:49.551Z,42.33
2018-02-19T06:25:17.110Z,45.23
2018-02-19T06:27:44.566Z,47.17
2018-02-19T06:30:12.023Z,45.60
2018-02-19T06:32:39.475Z,41.47
2018-02-19T06:35:06.955Z,41.07
2018-02-19T06:37:34.411Z,44.27
2018-02-19T06:40:01.875Z,48.20
2018-02-19T06:42:30.102Z,41.40
2018-02-19T06:44:57.758Z,43.70
2018-02-19T06:47:25.236Z,46.63
2018-02-19T06:49:52.724Z,43.93
2018-02-19T06:52:20.196Z,44.60
2018-02-19T06:54:48.431Z,45.00
2018-02-19T06:57:15.883Z,43.90
2018-02-19T06:59:43.363Z,41.73
2018-02-19T07:02:10.889Z,39.90
2018-02-19T07:04:38.343Z,44.63
2018-02-19T07:07:06.667Z,47.00
2018-02-19T07:09:34.138Z,38.63
2018-02-19T07:12:02.358Z,42.60
2018-02-19T07:14:29.869Z,48.77
2018-02-19T07:16:57.327Z,46.60
2018-02-19T07:19:25.563Z,44.70
2018-02-19T07:21:53.056Z,41.20
2018-02-19T07:24:20.516Z,41.30
2018-02-19T07:26:48.043Z,41.33
2018-02-19T07:29:15.502Z,40.40
2018-02-19T07:31:42.961Z,44.57
2018-02-19T07:34:10.451Z,38.60
2018-02-19T07:36:37.918Z,40.30
2018-02-19T07:39:06.292Z,36.83
2018-02-19T07:41:34.523Z,40.13
2018-02-19T07:44:02.028Z,37.77
2018-02-19T07:46:30.253Z,40.07
2018-02-19T07:48:57.728Z,38.27
2018-02-19T07:51:25.225Z,41.40
2018-02-19T07:53:53.565Z,37.37
2018-02-19T07:56:21.060Z,37.77
2018-02-19T07:58:48.622Z,36.90
2018-02-19T08:01:16.141Z,44.70
2018-02-19T08:03:43.633Z,32.87
2018-02-19T08:06:11.089Z,41.23
2018-02-19T08:08:38.550Z,40.87
2018-02-19T08:11:06.034Z,42.27
2018-02-19T08:13:33.530Z,45.57
2018-02-19T08:16:01.005Z,38.07
2018-02-19T08:18:28.482Z,37.93
2018-02-19T08:20:55.967Z,35.47
2018-02-19T08:23:23.477Z,38.53
2018-02-19T08:25:50.963Z,44.13
2018-02-19T08:28:18.423Z,40.43
2018-02-19T08:30:46.662Z,35.77
2018-02-19T08:33:14.150Z,38.13
2018-02-19T08:35:41.620Z,37.80
2018-02-19T08:38:09.887Z,39.33
2018-02-19T08:40:38.121Z,34.23
2018-02-19T08:43:05.670Z,34.37
2018-02-19T08:45:33.190Z,34.53
2018-02-19T08:48:01.456Z,40.40
2018-02-19T08:50:28.912Z,39.97
2018-02-19T08:52:56.376Z,34.90
2018-02-19T08:55:23.848Z,37.80
2018-02-19T08:57:52.180Z,37.83
2018-02-19T09:00:19.651Z,38.27
2018-02-19T09:02:47.122Z,34.77
2018-02-19T09:05:14.586Z,36.17
2018-02-19T09:07:42.038Z,36.57
2018-02-19T09:10:09.487Z,38.43
2018-02-19T09:12:36.953Z,39.03
2018-02-19T09:15:04.479Z,39.20
2018-02-19T09:17:31.947Z,35.00
2018-02-19T09:19:59.544Z,32.87
2018-02-19T09:22:27.265Z,35.00
2018-02-19T09:24:54.746Z,41.80
2018-02-19T09:27:22.203Z,34.53
2018-02-19T09:29:49.649Z,34.20
2018-02-19T09:32:17.123Z,39.30
2018-02-19T09:34:44.577Z,35.67
2018-02-19T09:37:12.057Z,32.57
2018-02-19T09:39:39.543Z,34.50
2018-02-19T09:42:07.202Z,32.50
2018-02-19T09:44:35.451Z,37.50
2018-02-19T09:47:03.708Z,35.27
2018-02-19T09:49:31.288Z,39.10
2018-02-19T09:51:59.542Z,33.70
2018-02-19T09:54:27.040Z,32.07
2018-02-19T09:56:55.275Z,29.33
2018-02-19T09:59:22.730Z,32.87
2018-02-19T10:01:50.214Z,32.33
2018-02-19T10:04:17.752Z,34.90
2018-02-19T10:06:45.206Z,32.13
2018-02-19T10:09:12.674Z,30.87
2018-02-19T10:11:40.137Z,28.50
2018-02-19T10:14:07.652Z,31.80
2018-02-19T10:16:35.138Z,35.80
2018-02-19T10:19:02.588Z,32.60
2018-02-19T10:21:30.055Z,34.67
2018-02-19T10:23:57.545Z,36.77
2018-02-19T10:26:25.025Z,34.13
2018-02-19T10:28:53.251Z,32.70
2018-02-19T10:31:21.106Z,32.00
2018-02-19T10:33:48.620Z,31.63
2018-02-19T10:36:16.938Z,31.23
2018-02-19T10:38:44.849Z,32.10
2018-02-19T10:41:12.318Z,33.60
2018-02-19T10:43:39.774Z,32.00
2018-02-19T10:46:07.993Z,33.77
2018-02-19T10:48:35.518Z,32.43
2018-02-19T10:51:03.776Z,32.83
2018-02-19T10:53:31.268Z,36.20
2018-02-19T10:55:59.033Z,32.60
2018-02-19T10:58:27.261Z,36.10
2018-02-19T11:00:54.757Z,41.90
2018-02-19T11:03:23.523Z,33.87
2018-02-19T11:05:51.083Z,32.27
2018-02-19T11:08:18.535Z,33.00
2018-02-19T11:10:46.254Z,31.43
2018-02-19T11:13:13.723Z,33.60
2018-02-19T11:15:41.190Z,32.90
2018-02-19T11:18:08.653Z,34.17
2018-02-19T11:20:36.124Z,28.13
2018-02-19T11:23:03.604Z,28.20
2018-02-19T11:25:31.853Z,30.93
2018-02-19T11:27:59.333Z,29.10
2018-02-19T11:30:26.799Z,30.33
2018-02-19T11:32:55.019Z,28.40
2018-02-19T11:35:22.851Z,31.83
2018-02-19T11:37:51.281Z,29.53
2018-02-19T11:40:18.764Z,27.00
2018-02-19T11:42:46.515Z,29.30
2018-02-19T11:45:13.971Z,30.83
2018-02-19T11:47:41.455Z,31.37
2018-02-19T11:50:08.898Z,31.30
2018-02-19T11:52:36.371Z,32.83
2018-02-19T11:55:03.837Z,29.23
2018-02-19T11:57:31.947Z,31.57
2018-02-19T11:59:59.463Z,26.70
2018-02-19T12:02:26.906Z,28.40
2018-02-19T12:04:54.383Z,29.60
2018-02-19T12:07:21.850Z,26.67
2018-02-19T12:09:50.106Z,32.50
2018-02-19T12:12:17.555Z,33.23
2018-02-19T12:14:45.284Z,34.93
2018-02-19T12:17:12.883Z,27.93
2018-02-19T12:19:40.515Z,35.33
2018-02-19T12:22:08.108Z,35.00
2018-02-19T12:24:35.565Z,31.70
2018-02-19T12:27:03.044Z,35.00
2018-02-19T12:29:31.282Z,32.90
2018-02-19T12:31:59.675Z,35.57
2018-02-19T12:34:27.214Z,32.97
2018-02-19T12:36:55.402Z,29.50
2018-02-19T12:39:22.911Z,30.30
2018-02-19T12:41:51.169Z,31.57
2018-02-19T12:44:18.614Z,31.63
2018-02-19T12:46:46.080Z,35.50
2018-02-19T12:49:13.537Z,30.43
2018-02-19T12:51:41.163Z,35.73
2018-02-19T12:54:08.635Z,34.70
2018-02-19T12:56:36.264Z,34.47
2018-02-19T12:59:03.829Z,33.30
2018-02-19T13:01:31.287Z,34.60
2018-02-19T13:03:58.746Z,36.70
2018-02-19T13:06:26.218Z,34.33
2018-02-19T13:08:53.748Z,37.87
2018-02-19T13:11:21.169Z,35.47
2018-02-19T13:13:48.616Z,32.43
2018-02-19T13:16:16.168Z,33.50
2018-02-19T13:18:43.654Z,37.33
2018-02-19T13:21:11.141Z,33.47
2018-02-19T13:23:39.407Z,39.00
2018-02-19T13:26:07.637Z,34.27
2018-02-19T13:28:35.165Z,34.90
2018-02-19T13:31:02.573Z,36.20
2018-02-19T13:33:30.120Z,31.70
2018-02-19T13:35:58.603Z,37.97
2018-02-19T13:38:26.082Z,39.10
2018-02-19T13:40:54.309Z,34.27
2018-02-19T13:43:21.774Z,40.23
2018-02-19T13:45:49.224Z,35.30
2018-02-19T13:48:16.723Z,38.90
2018-02-19T13:50:44.203Z,34.00
2018-02-19T13:53:12.411Z,36.77
2018-02-19T13:55:39.888Z,37.13
2018-02-19T13:58:07.354Z,36.90
2018-02-19T14:00:34.830Z,36.57
2018-02-19T14:03:02.280Z,32.70
2018-02-19T14:05:29.758Z,34.93
2018-02-19T14:07:57.194Z,29.90
2018-02-19T14:10:24.667Z,35.63
2018-02-19T14:12:52.236Z,32.03
2018-02-19T14:15:20.511Z,32.27
2018-02-19T14:17:48.010Z,33.17
2018-02-19T14:20:15.438Z,37.97
2018-02-19T14:22:43.660Z,30.13
2018-02-19T14:25:11.167Z,31.70
2018-02-19T14:27:39.414Z,33.60
2018-02-19T14:30:06.867Z,34.13
2018-02-19T14:32:34.299Z,34.73
2018-02-19T14:35:01.779Z,30.80
2018-02-19T14:37:29.236Z,31.70
2018-02-19T14:39:56.700Z,30.90
2018-02-19T14:42:24.179Z,32.80
2018-02-19T14:44:51.775Z,33.20
2018-02-19T14:47:19.231Z,28.80
2018-02-19T14:49:46.865Z,32.90
2018-02-19T14:52:14.579Z,35.07
2018-02-19T14:54:42.037Z,35.03
2018-02-19T14:57:09.496Z,31.33
2018-02-19T14:59:37.776Z,37.70
2018-02-19T15:02:05.258Z,33.70
2018-02-19T15:04:32.706Z,39.77
2018-02-19T15:07:00.182Z,44.43
2018-02-19T15:09:27.651Z,34.03
2018-02-19T15:11:55.113Z,36.03
2018-02-19T15:14:22.580Z,36.47
2018-02-19T15:16:50.039Z,36.40
2018-02-19T15:19:18.304Z,39.40
2018-02-19T15:21:45.763Z,35.13
2018-02-19T15:24:13.247Z,32.00
2018-02-19T15:26:41.500Z,33.43
2018-02-19T15:29:08.970Z,36.87
2018-02-19T15:31:37.264Z,37.17
2018-02-19T15:34:05.496Z,39.40
2018-02-19T15:36:32.975Z,33.07
2018-02-19T15:39:01.238Z,33.10
2018-02-19T15:41:28.908Z,39.13
2018-02-19T15:43:56.362Z,39.43
2018-02-19T15:46:23.843Z,35.43
2018-02-19T15:48:52.910Z,39.73
2018-02-19T15:51:20.590Z,42.53
2018-02-19T15:53:48.043Z,35.27
2018-02-19T15:56:15.493Z,39.67
2018-02-19T15:58:42.956Z,40.17
2018-02-19T16:01:10.488Z,46.83
2018-02-19T16:03:37.940Z,42.00
2018-02-19T16:06:05.443Z,38.10
2018-02-19T16:08:33.014Z,44.03
2018-02-19T16:11:00.621Z,42.07
2018-02-19T16:13:28.647Z,43.57
2018-02-19T16:15:56.199Z,42.53
2018-02-19T16:18:23.661Z,35.53
2018-02-19T16:20:51.990Z,37.70
2018-02-19T16:23:19.466Z,38.53
2018-02-19T16:25:47.048Z,42.87
2018-02-19T16:28:14.936Z,43.60
2018-02-19T16:30:42.388Z,37.73
2018-02-19T16:33:09.854Z,43.43
2018-02-19T16:35:38.103Z,33.37
2018-02-19T16:38:05.582Z,43.73
2018-02-19T16:40:33.847Z,38.33
2018-02-19T16:43:02.124Z,42.97
2018-02-19T16:45:29.787Z,40.10
2018-02-19T16:47:58.030Z,38.83
2018-02-19T16:50:25.626Z,40.53
2018-02-19T16:52:53.063Z,42.83
2018-02-19T16:55:20.724Z,40.13
2018-02-19T16:57:48.220Z,41.17
2018-02-19T17:00:16.446Z,40.17
2018-02-19T17:02:43.931Z,42.53
2018-02-19T17:05:11.444Z,47.07
2018-02-19T17:07:39.371Z,41.17
2018-02-19T17:10:08.407Z,43.30
2018-02-19T17:12:36.014Z,42.90
2018-02-19T17:15:04.460Z,42.77
2018-02-19T17:17:32.033Z,43.60
2018-02-19T17:20:00.315Z,43.50
2018-02-19T17:22:28.267Z,52.17
2018-02-19T17:24:55.867Z,40.63
2018-02-19T17:27:23.332Z,40.90
2018-02-19T17:29:51.127Z,41.57
2018-02-19T17:32:18.556Z,48.33
2018-02-19T17:34:46.815Z,42.70
2018-02-19T17:37:14.279Z,40.13
2018-02-19T17:39:41.727Z,44.73
2018-02-19T17:42:09.287Z,52.33
2018-02-19T17:44:36.738Z,50.70
2018-02-19T17:47:04.291Z,49.50
2018-02-19T17:49:31.805Z,41.50
2018-02-19T17:51:59.299Z,44.37
2018-02-19T17:54:26.988Z,39.67
2018-02-19T17:56:54.440Z,39.67
2018-02-19T17:59:22.407Z,47.93
2018-02-19T18:01:50.059Z,54.90
2018-02-19T18:04:17.522Z,52.73
2018-02-19T18:06:44.993Z,46.10
2018-02-19T18:09:12.643Z,41.83
2018-02-19T18:11:40.176Z,43.73
2018-02-19T18:14:07.647Z,46.97
2018-02-19T18:16:35.310Z,47.97
2018-02-19T18:19:02.779Z,57.73
2018-02-19T18:21:30.426Z,47.43
2018-02-19T18:23:57.935Z,47.87
2018-02-19T18:26:26.417Z,44.83
2018-02-19T18:28:53.871Z,46.27
2018-02-19T18:31:21.534Z,44.30
2018-02-19T18:33:49.045Z,45.87
2018-02-19T18:36:16.855Z,43.63
2018-02-19T18:38:44.386Z,51.67
2018-02-19T18:41:11.843Z,49.80
2018-02-19T18:43:39.344Z,49.00
2018-02-19T18:46:07.571Z,46.13
2018-02-19T18:48:35.161Z,44.03
2018-02-19T18:51:02.619Z,43.17
2018-02-19T18:53:30.203Z,41.47
2018-02-19T18:55:58.487Z,42.47
2018-02-19T18:58:26.850Z,42.80
2018-02-19T19:00:55.215Z,44.70
2018-02-19T19:03:22.693Z,51.13
2018-02-19T19:05:50.150Z,43.30
2018-02-19T19:08:29.740Z,41.37
2018-02-19T19:10:57.204Z,42.27
2018-02-19T19:13:24.939Z,44.83
2018-02-19T19:15:53.420Z,46.13
2018-02-19T19:18:20.922Z,44.73
2018-02-19T19:20:48.633Z,44.30
2018-02-19T19:23:16.895Z,41.17
2018-02-19T19:25:44.364Z,44.13
2018-02-19T19:28:12.599Z,46.17
2018-02-19T19:30:40.083Z,44.20
2018-02-19T19:33:07.541Z,42.47
2018-02-19T19:35:36.494Z,50.53
2018-02-19T19:38:03.990Z,47.13
2018-02-19T19:40:31.495Z,46.43
2018-02-19T19:42:59.015Z,50.87
2018-02-19T19:45:26.489Z,49.40
2018-02-19T19:47:53.991Z,45.00
2018-02-19T19:50:21.475Z,53.27
2018-02-19T19:52:48.941Z,55.20
2018-02-19T19:55:17.945Z,49.50
2018-02-19T19:57:45.385Z,43.77
2018-02-19T20:00:14.396Z,54.20
2018-02-19T20:02:41.853Z,48.10
2018-02-19T20:05:09.303Z,56.43
2018-02-19T20:07:36.774Z,45.30
2018-02-19T20:10:07.389Z,50.00
2018-02-19T20:12:35.690Z,49.43
2018-02-19T20:15:03.191Z,46.80
2018-02-19T20:17:30.672Z,49.63
2018-02-19T20:19:58.743Z,48.53
2018-02-19T20:22:26.432Z,48.37
2018-02-19T20:24:53.874Z,45.83
2018-02-19T20:27:21.331Z,51.50
2018-02-19T20:29:48.786Z,60.73
2018-02-19T20:32:16.287Z,50.90
2018-02-19T20:34:44.519Z,52.93
2018-02-19T20:37:12.003Z,47.47
2018-02-19T20:39:40.245Z,52.17
2018-02-19T20:42:07.728Z,52.83
2018-02-19T20:44:35.200Z,57.80
2018-02-19T20:47:03.442Z,48.90
2018-02-19T20:49:30.928Z,54.73
2018-02-19T20:51:58.425Z,47.20
2018-02-19T20:54:25.948Z,51.90
2018-02-19T20:56:53.603Z,49.33
2018-02-19T20:59:21.337Z,51.80
2018-02-19T21:01:48.801Z,54.43
2018-02-19T21:04:16.274Z,51.93
2018-02-19T21:06:43.740Z,48.87
2018-02-19T21:09:12.456Z,55.57
2018-02-19T21:11:40.807Z,52.13
2018-02-19T21:14:08.267Z,56.10
2018-02-19T21:16:35.861Z,52.73
2018-02-19T21:19:04.067Z,57.20
2018-02-19T21:21:31.579Z,51.83
2018-02-19T21:23:59.802Z,53.70
2018-02-19T21:26:27.272Z,54.43
2018-02-19T21:28:55.065Z,50.83
2018-02-19T21:31:22.538Z,56.40
2018-02-19T21:33:51.119Z,49.00
2018-02-19T21:36:19.374Z,63.77
2018-02-19T21:38:46.829Z,55.53
2018-02-19T21:41:14.360Z,56.40
2018-02-19T21:43:41.834Z,59.73
2018-02-19T21:46:09.294Z,57.87
2018-02-19T21:48:36.839Z,59.33
2018-02-19T21:51:04.297Z,55.73
2018-02-19T21:53:31.754Z,55.50
2018-02-19T21:55:59.219Z,50.57
2018-02-19T21:58:26.712Z,60.97
2018-02-19T22:00:54.175Z,57.90
2018-02-19T22:03:22.444Z,60.20
2018-02-19T22:05:49.922Z,54.87
2018-02-19T22:08:18.130Z,62.93
2018-02-19T22:10:45.599Z,66.80
2018-02-19T22:13:13.311Z,68.93
2018-02-19T22:15:40.739Z,67.80
2018-02-19T22:18:08.215Z,59.70
2018-02-19T22:20:35.692Z,64.53
2018-02-19T22:23:04.345Z,68.83
2018-02-19T22:25:31.818Z,65.70
2018-02-19T22:27:59.275Z,55.23
2018-02-19T22:30:26.990Z,60.90
2018-02-19T22:32:54.528Z,62.50
2018-02-19T22:35:22.275Z,64.80
2018-02-19T22:37:49.722Z,61.93
2018-02-19T22:40:17.958Z,64.90
2018-02-19T22:42:45.440Z,60.53
2018-02-19T22:45:12.912Z,62.63
2018-02-19T22:47:40.359Z,56.60
2018-02-19T22:50:07.839Z,59.17
2018-02-19T22:52:35.326Z,59.33
2018-02-19T22:55:03.651Z,61.77
2018-02-19T22:57:31.148Z,62.53
2018-02-19T22:59:59.384Z,59.00
2018-02-19T23:02:26.884Z,55.67
2018-02-19T23:04:55.124Z,61.53
2018-02-19T23:07:22.581Z,59.00
2018-02-19T23:09:50.079Z,64.30
2018-02-19T23:12:18.316Z,58.97
2018-02-19T23:14:46.571Z,63.13
2018-02-19T23:17:14.041Z,59.13
2018-02-19T23:19:41.548Z,59.80
2018-02-19T23:22:09.789Z,62.30
2018-02-19T23:24:37.253Z,61.93
2018-02-19T23:27:04.871Z,59.73
2018-02-19T23:29:32.344Z,69.43
2018-02-19T23:31:59.849Z,75.40
2018-02-19T23:34:28.086Z,74.43
2018-02-19T23:36:55.649Z,72.77
2018-02-19T23:39:23.110Z,61.30
2018-02-19T23:41:50.860Z,65.03
2018-02-19T23:44:18.339Z,67.03
2018-02-19T23:46:45.814Z,64.30
2018-02-19T23:49:13.294Z,67.33
2018-02-19T23:51:41.530Z,64.80
2018-02-19T23:54:08.987Z,70.63
2018-02-19T23:56:36.503Z,65.57
2018-02-19T23:59:03.952Z,64.20
